sensor_id;sensor_type;location;lat;lon;timestamp;P1;durP1;ratioP1;P2;durP2;ratioP2
63089;SDS011;49174;43.198;27.824;2023-04-16T00:01:21;17.77;;;5.43;;
63089;SDS011;49174;43.198;27.824;2023-04-16T00:03:46;17.42;;;5.68;;
63089;SDS011;49174;43.198;27.824;2023-04-16T00:06:12;10.55;;;4.63;;
63089;SDS011;49174;43.198;27.824;2023-04-16T00:08:38;12.30;;;4.80;;
63089;SDS011;49174;43.198;27.824;2023-04-16T00:11:05;11.88;;;4.75;;
63089;SDS011;49174;43.198;27.824;2023-04-16T00:13:30;12.70;;;4.45;;
63089;SDS011;49174;43.198;27.824;2023-04-16T00:15:56;12.95;;;4.63;;
63089;SDS011;49174;43.198;27.824;2023-04-16T00:18:24;8.15;;;5.05;;
63089;SDS011;49174;43.198;27.824;2023-04-16T00:20:50;11.98;;;4.70;;
63089;SDS011;49174;43.198;27.824;2023-04-16T00:23:16;8.05;;;4.45;;
63089;SDS011;49174;43.198;27.824;2023-04-16T00:25:42;7.75;;;4.10;;
63089;SDS011;49174;43.198;27.824;2023-04-16T00:28:08;8.88;;;4.68;;
63089;SDS011;49174;43.198;27.824;2023-04-16T00:30:36;10.65;;;4.63;;
63089;SDS011;49174;43.198;27.824;2023-04-16T00:33:01;14.90;;;5.50;;
63089;SDS011;49174;43.198;27.824;2023-04-16T00:35:28;12.20;;;4.35;;
63089;SDS011;49174;43.198;27.824;2023-04-16T00:37:54;9.77;;;4.65;;
63089;SDS011;49174;43.198;27.824;2023-04-16T00:40:20;11.00;;;4.10;;
63089;SDS011;49174;43.198;27.824;2023-04-16T00:42:45;11.25;;;4.78;;
63089;SDS011;49174;43.198;27.824;2023-04-16T00:45:11;9.10;;;4.13;;
63089;SDS011;49174;43.198;27.824;2023-04-16T00:47:37;11.98;;;4.85;;
63089;SDS011;49174;43.198;27.824;2023-04-16T00:50:03;12.07;;;4.40;;
63089;SDS011;49174;43.198;27.824;2023-04-16T00:52:30;10.85;;;5.03;;
63089;SDS011;49174;43.198;27.824;2023-04-16T00:54:57;9.38;;;4.50;;
63089;SDS011;49174;43.198;27.824;2023-04-16T00:57:22;14.57;;;5.38;;
63089;SDS011;49174;43.198;27.824;2023-04-16T00:59:48;12.75;;;5.40;;
63089;SDS011;49174;43.198;27.824;2023-04-16T01:02:14;9.13;;;5.15;;
63089;SDS011;49174;43.198;27.824;2023-04-16T01:04:40;16.38;;;5.00;;
63089;SDS011;49174;43.198;27.824;2023-04-16T01:07:06;9.65;;;5.32;;
63089;SDS011;49174;43.198;27.824;2023-04-16T01:09:31;11.90;;;4.78;;
63089;SDS011;49174;43.198;27.824;2023-04-16T01:11:57;9.88;;;5.60;;
63089;SDS011;49174;43.198;27.824;2023-04-16T01:14:22;19.63;;;5.88;;
63089;SDS011;49174;43.198;27.824;2023-04-16T01:16:48;10.13;;;4.82;;
63089;SDS011;49174;43.198;27.824;2023-04-16T01:19:13;11.73;;;5.75;;
63089;SDS011;49174;43.198;27.824;2023-04-16T01:21:39;11.15;;;5.45;;
63089;SDS011;49174;43.198;27.824;2023-04-16T01:24:05;9.95;;;5.35;;
63089;SDS011;49174;43.198;27.824;2023-04-16T01:26:30;19.52;;;5.35;;
63089;SDS011;49174;43.198;27.824;2023-04-16T01:28:56;13.48;;;6.05;;
63089;SDS011;49174;43.198;27.824;2023-04-16T01:31:21;10.57;;;5.65;;
63089;SDS011;49174;43.198;27.824;2023-04-16T01:33:47;12.68;;;5.07;;
63089;SDS011;49174;43.198;27.824;2023-04-16T01:36:12;8.35;;;4.95;;
63089;SDS011;49174;43.198;27.824;2023-04-16T01:38:38;14.15;;;5.63;;
63089;SDS011;49174;43.198;27.824;2023-04-16T01:41:03;11.25;;;5.07;;
63089;SDS011;49174;43.198;27.824;2023-04-16T01:43:29;20.40;;;5.78;;
63089;SDS011;49174;43.198;27.824;2023-04-16T01:45:58;10.32;;;5.85;;
63089;SDS011;49174;43.198;27.824;2023-04-16T01:48:53;13.55;;;5.45;;
63089;SDS011;49174;43.198;27.824;2023-04-16T01:51:20;10.43;;;5.68;;
63089;SDS011;49174;43.198;27.824;2023-04-16T01:53:46;12.48;;;6.00;;
63089;SDS011;49174;43.198;27.824;2023-04-16T01:56:11;13.00;;;6.18;;
63089;SDS011;49174;43.198;27.824;2023-04-16T01:58:37;12.20;;;6.18;;
63089;SDS011;49174;43.198;27.824;2023-04-16T02:01:03;13.10;;;6.35;;
63089;SDS011;49174;43.198;27.824;2023-04-16T02:03:30;13.23;;;5.82;;
63089;SDS011;49174;43.198;27.824;2023-04-16T02:05:56;14.25;;;5.72;;
63089;SDS011;49174;43.198;27.824;2023-04-16T02:08:21;9.82;;;5.75;;
63089;SDS011;49174;43.198;27.824;2023-04-16T02:10:48;12.57;;;6.65;;
63089;SDS011;49174;43.198;27.824;2023-04-16T02:13:14;9.05;;;5.57;;
63089;SDS011;49174;43.198;27.824;2023-04-16T02:15:47;9.85;;;4.80;;
63089;SDS011;49174;43.198;27.824;2023-04-16T02:18:14;9.95;;;5.95;;
63089;SDS011;49174;43.198;27.824;2023-04-16T02:20:40;12.52;;;5.50;;
63089;SDS011;49174;43.198;27.824;2023-04-16T02:23:09;11.40;;;6.47;;
63089;SDS011;49174;43.198;27.824;2023-04-16T02:25:42;12.95;;;6.35;;
63089;SDS011;49174;43.198;27.824;2023-04-16T02:28:12;9.93;;;6.32;;
63089;SDS011;49174;43.198;27.824;2023-04-16T02:30:39;12.90;;;6.28;;
63089;SDS011;49174;43.198;27.824;2023-04-16T02:33:05;10.60;;;5.70;;
63089;SDS011;49174;43.198;27.824;2023-04-16T02:35:32;10.52;;;5.40;;
63089;SDS011;49174;43.198;27.824;2023-04-16T02:37:59;12.25;;;6.45;;
63089;SDS011;49174;43.198;27.824;2023-04-16T02:40:25;9.55;;;5.05;;
63089;SDS011;49174;43.198;27.824;2023-04-16T02:42:51;9.40;;;6.00;;
63089;SDS011;49174;43.198;27.824;2023-04-16T02:45:17;10.27;;;5.65;;
63089;SDS011;49174;43.198;27.824;2023-04-16T02:47:43;11.52;;;6.13;;
63089;SDS011;49174;43.198;27.824;2023-04-16T02:50:09;10.75;;;6.20;;
63089;SDS011;49174;43.198;27.824;2023-04-16T02:52:34;14.38;;;6.65;;
63089;SDS011;49174;43.198;27.824;2023-04-16T02:55:00;8.63;;;6.28;;
63089;SDS011;49174;43.198;27.824;2023-04-16T02:57:25;11.77;;;7.15;;
63089;SDS011;49174;43.198;27.824;2023-04-16T02:59:51;17.60;;;7.65;;
63089;SDS011;49174;43.198;27.824;2023-04-16T03:02:17;18.58;;;8.00;;
63089;SDS011;49174;43.198;27.824;2023-04-16T03:04:42;14.70;;;7.40;;
63089;SDS011;49174;43.198;27.824;2023-04-16T03:07:08;15.48;;;7.18;;
63089;SDS011;49174;43.198;27.824;2023-04-16T03:09:36;14.18;;;6.32;;
63089;SDS011;49174;43.198;27.824;2023-04-16T03:12:02;12.73;;;6.55;;
63089;SDS011;49174;43.198;27.824;2023-04-16T03:14:28;12.18;;;7.15;;
63089;SDS011;49174;43.198;27.824;2023-04-16T03:16:55;10.90;;;6.18;;
63089;SDS011;49174;43.198;27.824;2023-04-16T03:19:20;11.55;;;6.43;;
63089;SDS011;49174;43.198;27.824;2023-04-16T03:21:46;12.63;;;6.20;;
63089;SDS011;49174;43.198;27.824;2023-04-16T03:24:11;11.93;;;6.30;;
63089;SDS011;49174;43.198;27.824;2023-04-16T03:26:37;10.73;;;5.88;;
63089;SDS011;49174;43.198;27.824;2023-04-16T03:29:03;10.55;;;5.57;;
63089;SDS011;49174;43.198;27.824;2023-04-16T03:31:29;9.95;;;6.68;;
63089;SDS011;49174;43.198;27.824;2023-04-16T03:33:54;18.70;;;6.45;;
63089;SDS011;49174;43.198;27.824;2023-04-16T03:36:20;10.65;;;5.40;;
63089;SDS011;49174;43.198;27.824;2023-04-16T03:38:47;13.80;;;5.97;;
63089;SDS011;49174;43.198;27.824;2023-04-16T03:41:12;8.85;;;5.70;;
63089;SDS011;49174;43.198;27.824;2023-04-16T03:43:38;10.93;;;5.32;;
63089;SDS011;49174;43.198;27.824;2023-04-16T03:46:03;11.07;;;5.25;;
63089;SDS011;49174;43.198;27.824;2023-04-16T03:48:29;10.77;;;5.72;;
63089;SDS011;49174;43.198;27.824;2023-04-16T03:50:54;10.90;;;6.28;;
63089;SDS011;49174;43.198;27.824;2023-04-16T03:53:20;11.63;;;6.25;;
63089;SDS011;49174;43.198;27.824;2023-04-16T03:55:48;10.18;;;5.63;;
63089;SDS011;49174;43.198;27.824;2023-04-16T03:58:15;13.85;;;6.22;;
63089;SDS011;49174;43.198;27.824;2023-04-16T04:00:41;12.85;;;5.65;;
63089;SDS011;49174;43.198;27.824;2023-04-16T04:03:07;9.75;;;5.68;;
63089;SDS011;49174;43.198;27.824;2023-04-16T04:05:38;11.40;;;5.35;;
63089;SDS011;49174;43.198;27.824;2023-04-16T04:08:04;13.43;;;6.07;;
63089;SDS011;49174;43.198;27.824;2023-04-16T04:10:31;15.32;;;6.28;;
63089;SDS011;49174;43.198;27.824;2023-04-16T04:12:57;11.32;;;5.50;;
63089;SDS011;49174;43.198;27.824;2023-04-16T04:15:22;10.70;;;5.57;;
63089;SDS011;49174;43.198;27.824;2023-04-16T04:17:48;11.38;;;5.85;;
63089;SDS011;49174;43.198;27.824;2023-04-16T04:20:13;14.95;;;5.80;;
63089;SDS011;49174;43.198;27.824;2023-04-16T04:22:39;12.93;;;5.68;;
63089;SDS011;49174;43.198;27.824;2023-04-16T04:25:05;13.30;;;6.05;;
63089;SDS011;49174;43.198;27.824;2023-04-16T04:27:30;12.73;;;5.97;;
63089;SDS011;49174;43.198;27.824;2023-04-16T04:29:56;9.60;;;6.38;;
63089;SDS011;49174;43.198;27.824;2023-04-16T04:32:22;10.98;;;7.03;;
63089;SDS011;49174;43.198;27.824;2023-04-16T04:34:47;14.68;;;7.72;;
63089;SDS011;49174;43.198;27.824;2023-04-16T04:37:13;13.40;;;7.25;;
63089;SDS011;49174;43.198;27.824;2023-04-16T04:39:38;13.85;;;7.45;;
63089;SDS011;49174;43.198;27.824;2023-04-16T04:42:04;10.93;;;6.55;;
63089;SDS011;49174;43.198;27.824;2023-04-16T04:44:30;10.38;;;7.55;;
63089;SDS011;49174;43.198;27.824;2023-04-16T04:46:55;14.10;;;7.50;;
63089;SDS011;49174;43.198;27.824;2023-04-16T04:49:21;13.70;;;7.03;;
63089;SDS011;49174;43.198;27.824;2023-04-16T04:51:46;15.43;;;8.23;;
63089;SDS011;49174;43.198;27.824;2023-04-16T04:54:12;15.95;;;7.97;;
63089;SDS011;49174;43.198;27.824;2023-04-16T04:56:37;15.25;;;8.15;;
63089;SDS011;49174;43.198;27.824;2023-04-16T04:59:03;12.35;;;7.50;;
63089;SDS011;49174;43.198;27.824;2023-04-16T05:01:28;11.85;;;7.57;;
63089;SDS011;49174;43.198;27.824;2023-04-16T05:03:54;11.80;;;7.65;;
63089;SDS011;49174;43.198;27.824;2023-04-16T05:06:20;9.23;;;6.28;;
63089;SDS011;49174;43.198;27.824;2023-04-16T05:08:45;12.75;;;7.25;;
63089;SDS011;49174;43.198;27.824;2023-04-16T05:11:10;10.65;;;6.90;;
63089;SDS011;49174;43.198;27.824;2023-04-16T05:13:36;12.45;;;7.03;;
63089;SDS011;49174;43.198;27.824;2023-04-16T05:16:04;21.42;;;11.13;;
63089;SDS011;49174;43.198;27.824;2023-04-16T05:18:33;24.88;;;17.75;;
63089;SDS011;49174;43.198;27.824;2023-04-16T05:20:58;14.82;;;8.82;;
63089;SDS011;49174;43.198;27.824;2023-04-16T05:23:26;10.40;;;7.32;;
63089;SDS011;49174;43.198;27.824;2023-04-16T05:25:52;14.93;;;7.53;;
63089;SDS011;49174;43.198;27.824;2023-04-16T05:28:17;16.83;;;8.07;;
63089;SDS011;49174;43.198;27.824;2023-04-16T05:30:43;16.52;;;8.65;;
63089;SDS011;49174;43.198;27.824;2023-04-16T05:33:10;13.10;;;6.72;;
63089;SDS011;49174;43.198;27.824;2023-04-16T05:35:42;10.90;;;7.10;;
63089;SDS011;49174;43.198;27.824;2023-04-16T05:44:41;13.63;;;7.45;;
63089;SDS011;49174;43.198;27.824;2023-04-16T05:47:06;12.70;;;6.88;;
63089;SDS011;49174;43.198;27.824;2023-04-16T05:49:34;12.18;;;6.65;;
63089;SDS011;49174;43.198;27.824;2023-04-16T05:52:02;9.05;;;6.30;;
63089;SDS011;49174;43.198;27.824;2023-04-16T05:54:28;11.77;;;6.90;;
63089;SDS011;49174;43.198;27.824;2023-04-16T05:56:54;11.48;;;6.47;;
63089;SDS011;49174;43.198;27.824;2023-04-16T05:59:20;11.80;;;7.70;;
63089;SDS011;49174;43.198;27.824;2023-04-16T06:34:58;11.27;;;6.05;;
63089;SDS011;49174;43.198;27.824;2023-04-16T06:37:24;9.45;;;5.45;;
63089;SDS011;49174;43.198;27.824;2023-04-16T06:39:49;9.57;;;4.55;;
63089;SDS011;49174;43.198;27.824;2023-04-16T06:42:15;11.45;;;4.45;;
63089;SDS011;49174;43.198;27.824;2023-04-16T06:44:41;7.15;;;4.40;;
63089;SDS011;49174;43.198;27.824;2023-04-16T06:49:48;10.77;;;4.60;;
63089;SDS011;49174;43.198;27.824;2023-04-16T06:52:14;11.18;;;4.60;;
63089;SDS011;49174;43.198;27.824;2023-04-16T06:54:39;8.65;;;4.30;;
63089;SDS011;49174;43.198;27.824;2023-04-16T06:59:47;6.22;;;3.95;;
63089;SDS011;49174;43.198;27.824;2023-04-16T07:02:12;9.90;;;4.25;;
63089;SDS011;49174;43.198;27.824;2023-04-16T07:04:38;11.80;;;4.13;;
63089;SDS011;49174;43.198;27.824;2023-04-16T07:07:04;11.95;;;3.75;;
63089;SDS011;49174;43.198;27.824;2023-04-16T07:09:29;10.63;;;4.45;;
63089;SDS011;49174;43.198;27.824;2023-04-16T07:11:55;17.13;;;4.90;;
63089;SDS011;49174;43.198;27.824;2023-04-16T07:14:20;14.30;;;4.95;;
63089;SDS011;49174;43.198;27.824;2023-04-16T07:16:46;9.43;;;4.10;;
63089;SDS011;49174;43.198;27.824;2023-04-16T07:24:35;7.75;;;3.63;;
63089;SDS011;49174;43.198;27.824;2023-04-16T07:27:01;8.75;;;3.55;;
63089;SDS011;49174;43.198;27.824;2023-04-16T07:45:32;8.73;;;4.18;;
63089;SDS011;49174;43.198;27.824;2023-04-16T07:47:58;8.50;;;3.78;;
63089;SDS011;49174;43.198;27.824;2023-04-16T07:50:24;9.55;;;3.75;;
63089;SDS011;49174;43.198;27.824;2023-04-16T07:55:31;6.32;;;3.92;;
63089;SDS011;49174;43.198;27.824;2023-04-16T07:57:57;5.10;;;3.28;;
63089;SDS011;49174;43.198;27.824;2023-04-16T08:03:07;8.32;;;3.67;;
63089;SDS011;49174;43.198;27.824;2023-04-16T08:10:57;8.18;;;3.08;;
63089;SDS011;49174;43.198;27.824;2023-04-16T08:13:24;9.48;;;3.40;;
63089;SDS011;49174;43.198;27.824;2023-04-16T08:15:50;7.07;;;3.47;;
63089;SDS011;49174;43.198;27.824;2023-04-16T08:18:15;8.32;;;3.28;;
63089;SDS011;49174;43.198;27.824;2023-04-16T08:20:41;9.60;;;4.07;;
63089;SDS011;49174;43.198;27.824;2023-04-16T08:23:07;8.63;;;3.40;;
63089;SDS011;49174;43.198;27.824;2023-04-16T08:25:33;8.20;;;3.75;;
63089;SDS011;49174;43.198;27.824;2023-04-16T08:27:59;5.57;;;3.28;;
63089;SDS011;49174;43.198;27.824;2023-04-16T08:30:25;9.13;;;3.53;;
63089;SDS011;49174;43.198;27.824;2023-04-16T08:32:52;8.48;;;3.60;;
63089;SDS011;49174;43.198;27.824;2023-04-16T08:38:07;9.98;;;3.45;;
63089;SDS011;49174;43.198;27.824;2023-04-16T08:55:12;8.70;;;3.20;;
63089;SDS011;49174;43.198;27.824;2023-04-16T08:57:42;9.93;;;3.55;;
63089;SDS011;49174;43.198;27.824;2023-04-16T09:00:12;7.97;;;2.90;;
63089;SDS011;49174;43.198;27.824;2023-04-16T09:02:38;7.18;;;2.90;;
63089;SDS011;49174;43.198;27.824;2023-04-16T09:05:04;4.93;;;3.08;;
63089;SDS011;49174;43.198;27.824;2023-04-16T09:07:31;5.95;;;2.67;;
63089;SDS011;49174;43.198;27.824;2023-04-16T09:09:58;9.40;;;3.00;;
63089;SDS011;49174;43.198;27.824;2023-04-16T09:12:24;6.35;;;2.83;;
63089;SDS011;49174;43.198;27.824;2023-04-16T09:14:50;10.85;;;3.47;;
63089;SDS011;49174;43.198;27.824;2023-04-16T09:17:19;7.50;;;3.17;;
63089;SDS011;49174;43.198;27.824;2023-04-16T09:19:45;7.93;;;3.13;;
63089;SDS011;49174;43.198;27.824;2023-04-16T09:22:11;6.03;;;3.00;;
63089;SDS011;49174;43.198;27.824;2023-04-16T09:24:36;5.80;;;3.35;;
63089;SDS011;49174;43.198;27.824;2023-04-16T09:27:02;8.23;;;2.72;;
63089;SDS011;49174;43.198;27.824;2023-04-16T09:29:38;5.13;;;2.92;;
63089;SDS011;49174;43.198;27.824;2023-04-16T09:32:08;4.65;;;2.78;;
63089;SDS011;49174;43.198;27.824;2023-04-16T09:35:08;5.38;;;3.00;;
63089;SDS011;49174;43.198;27.824;2023-04-16T09:37:28;7.57;;;3.33;;
63089;SDS011;49174;43.198;27.824;2023-04-16T09:39:59;5.40;;;2.83;;
63089;SDS011;49174;43.198;27.824;2023-04-16T09:42:32;4.18;;;2.83;;
63089;SDS011;49174;43.198;27.824;2023-04-16T09:45:00;6.38;;;3.45;;
63089;SDS011;49174;43.198;27.824;2023-04-16T09:47:37;6.97;;;3.38;;
63089;SDS011;49174;43.198;27.824;2023-04-16T09:50:05;7.50;;;3.15;;
63089;SDS011;49174;43.198;27.824;2023-04-16T09:52:34;7.10;;;3.38;;
63089;SDS011;49174;43.198;27.824;2023-04-16T09:55:02;6.03;;;3.38;;
63089;SDS011;49174;43.198;27.824;2023-04-16T09:57:28;6.43;;;2.95;;
63089;SDS011;49174;43.198;27.824;2023-04-16T09:59:54;8.55;;;3.72;;
63089;SDS011;49174;43.198;27.824;2023-04-16T10:02:27;6.55;;;2.90;;
63089;SDS011;49174;43.198;27.824;2023-04-16T10:04:53;6.32;;;2.97;;
63089;SDS011;49174;43.198;27.824;2023-04-16T10:07:20;9.35;;;3.22;;
63089;SDS011;49174;43.198;27.824;2023-04-16T10:09:46;7.90;;;3.33;;
63089;SDS011;49174;43.198;27.824;2023-04-16T10:12:13;9.60;;;3.03;;
63089;SDS011;49174;43.198;27.824;2023-04-16T10:14:39;5.47;;;2.95;;
63089;SDS011;49174;43.198;27.824;2023-04-16T10:17:06;5.72;;;2.80;;
63089;SDS011;49174;43.198;27.824;2023-04-16T10:19:32;4.68;;;3.05;;
63089;SDS011;49174;43.198;27.824;2023-04-16T10:21:59;6.07;;;2.97;;
63089;SDS011;49174;43.198;27.824;2023-04-16T10:24:26;4.78;;;3.05;;
63089;SDS011;49174;43.198;27.824;2023-04-16T10:26:52;7.22;;;3.30;;
63089;SDS011;49174;43.198;27.824;2023-04-16T10:29:22;5.97;;;3.53;;
63089;SDS011;49174;43.198;27.824;2023-04-16T10:31:48;4.93;;;3.53;;
63089;SDS011;49174;43.198;27.824;2023-04-16T10:34:14;4.50;;;3.10;;
63089;SDS011;49174;43.198;27.824;2023-04-16T10:36:41;5.35;;;3.38;;
63089;SDS011;49174;43.198;27.824;2023-04-16T10:39:10;6.22;;;2.92;;
63089;SDS011;49174;43.198;27.824;2023-04-16T10:41:37;9.15;;;4.10;;
63089;SDS011;49174;43.198;27.824;2023-04-16T10:44:04;6.72;;;3.28;;
63089;SDS011;49174;43.198;27.824;2023-04-16T10:46:39;7.07;;;3.58;;
63089;SDS011;49174;43.198;27.824;2023-04-16T10:51:37;6.63;;;3.40;;
63089;SDS011;49174;43.198;27.824;2023-04-16T10:56:31;5.18;;;3.70;;
63089;SDS011;49174;43.198;27.824;2023-04-16T10:58:57;6.15;;;3.80;;
63089;SDS011;49174;43.198;27.824;2023-04-16T11:01:33;5.25;;;3.03;;
63089;SDS011;49174;43.198;27.824;2023-04-16T11:04:01;7.85;;;3.50;;
63089;SDS011;49174;43.198;27.824;2023-04-16T11:12:41;6.88;;;2.85;;
63089;SDS011;49174;43.198;27.824;2023-04-16T11:17:38;8.73;;;3.50;;
63089;SDS011;49174;43.198;27.824;2023-04-16T11:20:06;7.47;;;3.35;;
63089;SDS011;49174;43.198;27.824;2023-04-16T11:22:34;5.35;;;3.53;;
63089;SDS011;49174;43.198;27.824;2023-04-16T11:25:00;7.68;;;3.10;;
63089;SDS011;49174;43.198;27.824;2023-04-16T11:27:28;6.85;;;2.97;;
63089;SDS011;49174;43.198;27.824;2023-04-16T11:30:01;6.88;;;3.70;;
63089;SDS011;49174;43.198;27.824;2023-04-16T11:32:33;7.25;;;3.80;;
63089;SDS011;49174;43.198;27.824;2023-04-16T11:35:00;5.20;;;3.22;;
63089;SDS011;49174;43.198;27.824;2023-04-16T11:37:32;6.20;;;3.67;;
63089;SDS011;49174;43.198;27.824;2023-04-16T11:39:59;7.13;;;3.83;;
63089;SDS011;49174;43.198;27.824;2023-04-16T11:42:25;7.85;;;3.70;;
63089;SDS011;49174;43.198;27.824;2023-04-16T11:44:55;5.45;;;3.30;;
63089;SDS011;49174;43.198;27.824;2023-04-16T11:47:24;4.63;;;3.05;;
63089;SDS011;49174;43.198;27.824;2023-04-16T11:49:51;9.82;;;3.40;;
63089;SDS011;49174;43.198;27.824;2023-04-16T11:54:52;6.80;;;3.15;;
63089;SDS011;49174;43.198;27.824;2023-04-16T11:57:27;6.80;;;3.30;;
63089;SDS011;49174;43.198;27.824;2023-04-16T11:59:55;9.40;;;3.60;;
63089;SDS011;49174;43.198;27.824;2023-04-16T12:02:37;7.40;;;3.08;;
63089;SDS011;49174;43.198;27.824;2023-04-16T12:05:05;6.60;;;2.85;;
63089;SDS011;49174;43.198;27.824;2023-04-16T12:07:44;8.35;;;2.90;;
63089;SDS011;49174;43.198;27.824;2023-04-16T12:10:10;6.85;;;3.05;;
63089;SDS011;49174;43.198;27.824;2023-04-16T12:12:36;5.45;;;3.20;;
63089;SDS011;49174;43.198;27.824;2023-04-16T12:15:02;9.20;;;3.10;;
63089;SDS011;49174;43.198;27.824;2023-04-16T12:17:28;6.25;;;2.90;;
63089;SDS011;49174;43.198;27.824;2023-04-16T12:19:57;6.72;;;2.63;;
63089;SDS011;49174;43.198;27.824;2023-04-16T12:24:59;5.47;;;3.38;;
63089;SDS011;49174;43.198;27.824;2023-04-16T12:27:49;6.38;;;3.05;;
63089;SDS011;49174;43.198;27.824;2023-04-16T12:30:17;8.05;;;3.78;;
63089;SDS011;49174;43.198;27.824;2023-04-16T12:32:45;7.85;;;3.88;;
63089;SDS011;49174;43.198;27.824;2023-04-16T12:35:12;7.47;;;3.20;;
63089;SDS011;49174;43.198;27.824;2023-04-16T12:37:38;7.15;;;3.95;;
63089;SDS011;49174;43.198;27.824;2023-04-16T12:40:05;6.03;;;2.97;;
63089;SDS011;49174;43.198;27.824;2023-04-16T12:42:31;9.55;;;3.55;;
63089;SDS011;49174;43.198;27.824;2023-04-16T12:45:01;9.57;;;3.40;;
63089;SDS011;49174;43.198;27.824;2023-04-16T12:47:28;6.43;;;3.40;;
63089;SDS011;49174;43.198;27.824;2023-04-16T12:49:54;7.35;;;3.22;;
63089;SDS011;49174;43.198;27.824;2023-04-16T12:52:21;6.80;;;4.00;;
63089;SDS011;49174;43.198;27.824;2023-04-16T12:54:46;6.85;;;3.75;;
63089;SDS011;49174;43.198;27.824;2023-04-16T12:57:12;8.57;;;3.40;;
63089;SDS011;49174;43.198;27.824;2023-04-16T12:59:37;8.00;;;2.90;;
63089;SDS011;49174;43.198;27.824;2023-04-16T13:02:03;6.00;;;3.03;;
63089;SDS011;49174;43.198;27.824;2023-04-16T13:04:29;4.80;;;2.67;;
63089;SDS011;49174;43.198;27.824;2023-04-16T13:06:54;6.28;;;3.15;;
63089;SDS011;49174;43.198;27.824;2023-04-16T13:09:20;6.05;;;2.97;;
63089;SDS011;49174;43.198;27.824;2023-04-16T13:11:46;8.93;;;3.65;;
63089;SDS011;49174;43.198;27.824;2023-04-16T13:14:11;7.32;;;3.55;;
63089;SDS011;49174;43.198;27.824;2023-04-16T13:16:36;10.88;;;3.53;;
63089;SDS011;49174;43.198;27.824;2023-04-16T13:19:03;9.73;;;4.00;;
63089;SDS011;49174;43.198;27.824;2023-04-16T13:21:29;11.68;;;3.95;;
63089;SDS011;49174;43.198;27.824;2023-04-16T13:23:55;12.32;;;3.95;;
63089;SDS011;49174;43.198;27.824;2023-04-16T13:26:21;10.57;;;4.43;;
63089;SDS011;49174;43.198;27.824;2023-04-16T13:28:46;11.18;;;3.75;;
63089;SDS011;49174;43.198;27.824;2023-04-16T13:31:11;13.80;;;4.60;;
63089;SDS011;49174;43.198;27.824;2023-04-16T13:33:39;10.43;;;4.18;;
63089;SDS011;49174;43.198;27.824;2023-04-16T13:36:05;8.98;;;3.60;;
63089;SDS011;49174;43.198;27.824;2023-04-16T13:38:30;10.35;;;3.78;;
63089;SDS011;49174;43.198;27.824;2023-04-16T13:40:56;8.85;;;3.53;;
63089;SDS011;49174;43.198;27.824;2023-04-16T13:43:21;13.23;;;4.22;;
63089;SDS011;49174;43.198;27.824;2023-04-16T13:45:47;7.90;;;3.97;;
63089;SDS011;49174;43.198;27.824;2023-04-16T13:48:12;11.27;;;3.80;;
63089;SDS011;49174;43.198;27.824;2023-04-16T13:50:38;8.50;;;3.83;;
63089;SDS011;49174;43.198;27.824;2023-04-16T13:53:04;9.68;;;4.03;;
63089;SDS011;49174;43.198;27.824;2023-04-16T13:55:30;17.63;;;5.95;;
63089;SDS011;49174;43.198;27.824;2023-04-16T13:57:56;7.93;;;4.47;;
63089;SDS011;49174;43.198;27.824;2023-04-16T14:00:21;7.68;;;3.75;;
63089;SDS011;49174;43.198;27.824;2023-04-16T14:02:48;7.97;;;3.30;;
63089;SDS011;49174;43.198;27.824;2023-04-16T14:05:15;7.20;;;3.00;;
63089;SDS011;49174;43.198;27.824;2023-04-16T14:07:40;12.88;;;4.00;;
63089;SDS011;49174;43.198;27.824;2023-04-16T14:10:06;8.13;;;3.60;;
63089;SDS011;49174;43.198;27.824;2023-04-16T14:12:35;11.43;;;3.40;;
63089;SDS011;49174;43.198;27.824;2023-04-16T14:15:02;8.70;;;3.67;;
63089;SDS011;49174;43.198;27.824;2023-04-16T14:17:33;10.30;;;3.35;;
63089;SDS011;49174;43.198;27.824;2023-04-16T14:19:59;8.50;;;3.65;;
63089;SDS011;49174;43.198;27.824;2023-04-16T14:22:25;8.02;;;4.00;;
63089;SDS011;49174;43.198;27.824;2023-04-16T14:24:50;9.02;;;3.80;;
63089;SDS011;49174;43.198;27.824;2023-04-16T14:27:16;8.88;;;3.15;;
63089;SDS011;49174;43.198;27.824;2023-04-16T14:29:41;5.80;;;3.53;;
63089;SDS011;49174;43.198;27.824;2023-04-16T14:32:08;9.80;;;4.22;;
63089;SDS011;49174;43.198;27.824;2023-04-16T14:34:33;7.13;;;2.90;;
63089;SDS011;49174;43.198;27.824;2023-04-16T14:36:59;10.32;;;3.47;;
63089;SDS011;49174;43.198;27.824;2023-04-16T14:39:24;8.20;;;3.38;;
63089;SDS011;49174;43.198;27.824;2023-04-16T14:41:51;8.52;;;3.60;;
63089;SDS011;49174;43.198;27.824;2023-04-16T14:44:16;18.40;;;11.25;;
63089;SDS011;49174;43.198;27.824;2023-04-16T14:46:42;10.73;;;3.35;;
63089;SDS011;49174;43.198;27.824;2023-04-16T14:49:07;11.68;;;3.92;;
63089;SDS011;49174;43.198;27.824;2023-04-16T14:51:34;8.95;;;4.57;;
63089;SDS011;49174;43.198;27.824;2023-04-16T14:54:01;7.20;;;4.03;;
63089;SDS011;49174;43.198;27.824;2023-04-16T14:56:27;9.48;;;4.80;;
63089;SDS011;49174;43.198;27.824;2023-04-16T14:58:52;11.10;;;4.70;;
63089;SDS011;49174;43.198;27.824;2023-04-16T15:01:19;8.27;;;4.38;;
63089;SDS011;49174;43.198;27.824;2023-04-16T15:03:45;13.45;;;4.15;;
63089;SDS011;49174;43.198;27.824;2023-04-16T15:06:10;11.95;;;4.60;;
63089;SDS011;49174;43.198;27.824;2023-04-16T15:08:36;9.35;;;4.40;;
63089;SDS011;49174;43.198;27.824;2023-04-16T15:11:01;8.63;;;3.72;;
63089;SDS011;49174;43.198;27.824;2023-04-16T15:13:27;7.10;;;4.07;;
63089;SDS011;49174;43.198;27.824;2023-04-16T15:16:01;13.13;;;5.72;;
63089;SDS011;49174;43.198;27.824;2023-04-16T15:18:28;12.07;;;6.05;;
63089;SDS011;49174;43.198;27.824;2023-04-16T15:20:54;10.20;;;3.75;;
63089;SDS011;49174;43.198;27.824;2023-04-16T15:23:19;12.60;;;4.93;;
63089;SDS011;49174;43.198;27.824;2023-04-16T15:25:45;15.50;;;5.10;;
63089;SDS011;49174;43.198;27.824;2023-04-16T15:28:11;11.25;;;4.90;;
63089;SDS011;49174;43.198;27.824;2023-04-16T15:30:37;9.18;;;4.25;;
63089;SDS011;49174;43.198;27.824;2023-04-16T15:33:04;9.15;;;3.90;;
63089;SDS011;49174;43.198;27.824;2023-04-16T15:35:30;7.00;;;4.45;;
63089;SDS011;49174;43.198;27.824;2023-04-16T15:37:55;11.82;;;3.85;;
63089;SDS011;49174;43.198;27.824;2023-04-16T15:40:21;8.85;;;3.90;;
63089;SDS011;49174;43.198;27.824;2023-04-16T15:42:47;11.63;;;3.78;;
63089;SDS011;49174;43.198;27.824;2023-04-16T15:45:12;9.77;;;4.28;;
63089;SDS011;49174;43.198;27.824;2023-04-16T15:47:38;9.95;;;4.30;;
63089;SDS011;49174;43.198;27.824;2023-04-16T15:50:03;6.18;;;3.85;;
63089;SDS011;49174;43.198;27.824;2023-04-16T15:52:29;14.43;;;4.43;;
63089;SDS011;49174;43.198;27.824;2023-04-16T15:54:55;7.05;;;4.07;;
63089;SDS011;49174;43.198;27.824;2023-04-16T15:57:20;14.00;;;4.28;;
63089;SDS011;49174;43.198;27.824;2023-04-16T15:59:46;21.40;;;10.00;;
63089;SDS011;49174;43.198;27.824;2023-04-16T16:02:11;8.95;;;4.07;;
63089;SDS011;49174;43.198;27.824;2023-04-16T16:04:37;8.50;;;3.72;;
63089;SDS011;49174;43.198;27.824;2023-04-16T16:07:02;8.50;;;4.63;;
63089;SDS011;49174;43.198;27.824;2023-04-16T16:09:28;11.80;;;4.30;;
63089;SDS011;49174;43.198;27.824;2023-04-16T16:11:54;11.68;;;4.88;;
63089;SDS011;49174;43.198;27.824;2023-04-16T16:14:22;8.05;;;4.53;;
63089;SDS011;49174;43.198;27.824;2023-04-16T16:16:47;11.23;;;4.47;;
63089;SDS011;49174;43.198;27.824;2023-04-16T16:19:13;12.52;;;5.00;;